Terminal Aerodrome Forecast
Issued by NWS

Home | Current Version | Previous Version | Text Only | Print | Product List | Glossary On
Versions: 1 2 3 4 5 6 7 8 9 10 11 12 13 14 15 16 17 18 19 20 21 22
000
FTUS41 KILN 032330
TAFLUK
TAF
KLUK 032330Z 0400/0424 25003KT P6SM FEW070
     FM040600 00000KT 4SM BR SCT250
     FM040800 00000KT 2SM BR SCT040
      TEMPO 0408/0412 1/2SM FG BKN004
     FM041300 23004KT P6SM VCTS BKN040CB=

USA.gov is the U.S. government's official web portal to all federal, state and local government web resources and services.